This is the latest recevied weather packets stored in our database for station/object WD4HMR. If no packets are shown the sender has not sent any weather packets the latest 10 day(s).
| Time | Temp. | Humidity | Pressure | Rain* | Wind** | Luminosity | Snow |
|---|---|---|---|---|---|---|---|
| 1777787703 | 11.67° C | 71% | 1019.5 hPa | 0 mm | - | 0 W/m² | - |
| 1777786804 | 11.11° C | 70% | 1019.4 hPa | 0 mm | - | 0 W/m² | - |
| 1777785904 | 11.67° C | 71% | 1019.3 hPa | 0 mm | - | 0 W/m² | - |
| 1777785303 | 11.67° C | 68% | 1019.2 hPa | 0 mm | - | 0 W/m² | - |
| 1777784103 | 11.67° C | 65% | 1019.1 hPa | 0 mm | - | 0 W/m² | - |
| 1777782904 | 10.56° C | 78% | 1018.6 hPa | 0 mm | - | 0 W/m² | - |
| 1777782604 | 10.56° C | 79% | 1018.6 hPa | 0 mm | - | 0 W/m² | - |
| 1777782304 | 10.56° C | 78% | 1018.6 hPa | 0 mm | - | 0 W/m² | - |
| 1777781704 | 10.56° C | 77% | 1018.6 hPa | 0 mm | - | 0 W/m² | - |
| 1777779604 | 11.11° C | 77% | 1018.4 hPa | 0 mm | - | 0 W/m² | - |
| 1777777204 | 11.67° C | 72% | 1018.4 hPa | 0 mm | - | 0 W/m² | - |
| 1777776604 | 11.67° C | 72% | 1018.3 hPa | 0 mm | - | 0 W/m² | - |
| 1777774204 | 12.78° C | 71% | 1018 hPa | 0 mm | - | 0 W/m² | - |
| 1777773904 | 12.78° C | 70% | 1018 hPa | 0 mm | - | 0 W/m² | - |
| 1777772404 | 13.33° C | 69% | 1017.7 hPa | 0 mm | - | 0 W/m² | - |
| 1777770604 | 14.44° C | 62% | 1017.4 hPa | 0 mm | - | 0 W/m² | - |
| 1777767903 | 17.22° C | 48% | 1016.9 hPa | 0 mm | - | 68 W/m² | - |
| 1777766709 | 17.78° C | 44% | 1016.6 hPa | 0 mm | - | 150 W/m² | - |
| 1777765504 | 18.89° C | 40% | 1016.4 hPa | 0 mm | - | 393 W/m² | - |
| 1777765204 | 18.89° C | 41% | 1016.4 hPa | 0 mm | - | 413 W/m² | - |
| 1777764604 | 18.89° C | 40% | 1016.3 hPa | 0 mm | - | 454 W/m² | - |
| 1777764004 | 18.89° C | 39% | 1016.3 hPa | 0 mm | - | 496 W/m² | - |
| 1777763703 | 18.89° C | 39% | 1016.3 hPa | 0 mm | - | 517 W/m² | - |
| 1777762204 | 19.44° C | 39% | 1016.4 hPa | 0 mm | - | 624 W/m² | - |
| 1777761304 | 19.44° C | 38% | 1016.3 hPa | 0 mm | - | 689 W/m² | - |
* Rain latest hour (hover to see other rain measurements)
** Current wind speed in m/s (hover to see current wind gust speed)